Time;durP1;ratioP1;P1;durP2;ratioP2;P2;SDS_P1;SDS_P2;PMS_P1;PMS_P2;Temp;Humidity;BMP_temperature;BMP_pressure;BME280_temperature;BME280_humidity;BME280_pressure;Samples;Min_cycle;Max_cycle;Signal;HPM_P1;HPM_P2
2022/09/28 00:01:51;;;;;;;;;1.33;1.00;;;;;;;;5098676;27;45528;-78
2022/09/28 00:04:26;;;;;;;;;2.33;0.67;;;;;;;;5100607;27;45486;-79
2022/09/28 00:07:07;;;;;;;;;3.67;1.33;;;;;;;;5100054;27;45369;-76
2022/09/28 00:09:32;;;;;;;;;1.00;1.00;;;;;;;;5106853;27;45790;-78
2022/09/28 00:14:58;;;;;;;;;2.00;2.00;;;;;;;;5097086;27;47294;-77
2022/09/28 00:17:49;;;;;;;;;;;;;;;;;;;;;
2022/09/28 00:20:26;;;;;;;;;2.00;2.00;;;;;;;;5087497;27;69571;-77
2022/09/28 00:25:58;;;;;;;;;;;;;;;;;;;;;
2022/09/28 00:28:33;;;;;;;;;1.33;1.00;;;;;;;;5119146;27;73228;-77
2022/09/28 00:31:14;;;;;;;;;1.67;1.67;;;;;;;;5102685;27;45724;-78
2022/09/28 00:33:55;;;;;;;;;1.00;1.00;;;;;;;;5107645;27;45971;-78
2022/09/28 00:36:28;;;;;;;;;3.00;0.67;;;;;;;;5128181;27;45823;-78
2022/09/28 00:39:05;;;;;;;;;1.67;1.67;;;;;;;;5114448;27;45378;-76
2022/09/28 00:41:37;;;;;;;;;2.67;2.00;;;;;;;;5101611;27;45841;-77
2022/09/28 00:44:43;;;;;;;;;4.67;3.33;;;;;;;;5112654;27;45697;-78
2022/09/28 00:47:11;;;;;;;;;0.67;0.67;;;;;;;;5115128;27;46156;-77
2022/09/28 00:50:05;;;;;;;;;3.00;1.00;;;;;;;;5101639;27;45390;-77
2022/09/28 00:52:38;;;;;;;;;1.33;1.33;;;;;;;;5110648;27;45554;-79
2022/09/28 00:55:09;;;;;;;;;1.33;1.33;;;;;;;;5105750;27;45352;-78
2022/09/28 00:57:42;;;;;;;;;2.00;1.33;;;;;;;;5100388;27;45934;-77
2022/09/28 01:00:14;;;;;;;;;4.67;2.67;;;;;;;;5102826;27;45676;-78
2022/09/28 01:02:56;;;;;;;;;0.33;0.33;;;;;;;;5096441;27;45525;-77
2022/09/28 01:05:28;;;;;;;;;4.00;2.00;;;;;;;;5083580;27;45727;-79
2022/09/28 01:07:58;;;;;;;;;1.00;1.00;;;;;;;;5094749;27;45922;-79
2022/09/28 01:10:31;;;;;;;;;2.67;2.00;;;;;;;;5109965;27;45506;-78
2022/09/28 01:12:59;;;;;;;;;4.33;2.67;;;;;;;;5105116;27;45415;-77
2022/09/28 01:15:30;;;;;;;;;4.33;1.33;;;;;;;;5105282;27;45768;-78
2022/09/28 01:17:57;;;;;;;;;2.00;2.00;;;;;;;;5132760;27;45431;-78
2022/09/28 01:20:50;;;;;;;;;1.33;1.33;;;;;;;;5114453;27;45866;-78
2022/09/28 01:23:25;;;;;;;;;2.00;1.00;;;;;;;;5124195;27;45425;-77
2022/09/28 01:26:15;;;;;;;;;1.33;1.33;;;;;;;;5085242;27;45470;-78
2022/09/28 01:28:42;;;;;;;;;3.00;2.00;;;;;;;;5088744;27;46892;-78
2022/09/28 01:31:24;;;;;;;;;1.33;1.33;;;;;;;;5118371;27;45758;-77
2022/09/28 01:34:22;;;;;;;;;2.67;1.00;;;;;;;;5095612;27;45429;-77
2022/09/28 01:37:05;;;;;;;;;1.00;1.00;;;;;;;;5073162;27;45549;-79
2022/09/28 01:39:48;;;;;;;;;3.00;2.00;;;;;;;;5109619;27;45516;-77
2022/09/28 01:42:20;;;;;;;;;3.33;2.67;;;;;;;;5100021;27;45509;-77
2022/09/28 01:44:51;;;;;;;;;1.00;1.00;;;;;;;;5087301;27;45726;-77
2022/09/28 01:47:20;;;;;;;;;5.33;1.67;;;;;;;;5106337;27;45607;-76
2022/09/28 01:52:58;;;;;;;;;2.00;1.00;;;;;;;;5128387;27;45490;-76
2022/09/28 01:55:24;;;;;;;;;4.00;1.00;;;;;;;;5112982;27;45481;-79
2022/09/28 01:57:54;;;;;;;;;1.00;1.00;;;;;;;;5107224;27;45378;-77
2022/09/28 02:00:22;;;;;;;;;1.00;1.00;;;;;;;;5113373;27;45824;-78
2022/09/28 02:03:06;;;;;;;;;3.33;2.33;;;;;;;;5125682;27;45869;-78
2022/09/28 02:05:35;;;;;;;;;1.67;1.67;;;;;;;;5109226;27;45472;-76
2022/09/28 02:08:01;;;;;;;;;2.00;0.33;;;;;;;;5103851;27;45543;-78
2022/09/28 02:10:34;;;;;;;;;1.00;1.00;;;;;;;;5112097;27;46624;-78
2022/09/28 02:13:02;;;;;;;;;0.67;0.67;;;;;;;;5112934;27;45439;-78
2022/09/28 02:15:41;;;;;;;;;3.33;0.67;;;;;;;;5113213;27;45934;-79
2022/09/28 02:18:06;;;;;;;;;3.00;1.67;;;;;;;;5098549;27;45772;-77
2022/09/28 02:20:33;;;;;;;;;2.00;2.00;;;;;;;;5104839;27;45964;-78
2022/09/28 02:23:00;;;;;;;;;1.67;1.67;;;;;;;;5079369;27;45896;-77
2022/09/28 02:25:50;;;;;;;;;3.33;1.67;;;;;;;;5073213;27;45844;-77
2022/09/28 02:28:15;;;;;;;;;5.67;2.00;;;;;;;;5090506;27;46669;-79
2022/09/28 02:30:42;;;;;;;;;2.00;2.00;;;;;;;;5086676;27;46640;-79
2022/09/28 02:33:16;;;;;;;;;2.00;1.00;;;;;;;;5091779;27;45557;-77
2022/09/28 02:35:41;;;;;;;;;2.67;1.33;;;;;;;;5073538;27;45453;-77
2022/09/28 02:38:08;;;;;;;;;1.67;1.67;;;;;;;;5092316;27;45767;-77
2022/09/28 02:40:36;;;;;;;;;6.00;2.00;;;;;;;;5092737;27;45484;-76
2022/09/28 02:43:19;;;;;;;;;4.00;2.67;;;;;;;;5092556;27;45374;-76
2022/09/28 02:46:03;;;;;;;;;1.00;1.00;;;;;;;;5073518;27;45425;-75
2022/09/28 02:48:29;;;;;;;;;3.67;2.33;;;;;;;;5072937;27;46842;-77
2022/09/28 02:51:03;;;;;;;;;2.67;2.67;;;;;;;;5071330;27;46423;-77
2022/09/28 02:53:29;;;;;;;;;4.00;2.00;;;;;;;;5081023;27;45387;-75
2022/09/28 02:56:29;;;;;;;;;2.00;1.33;;;;;;;;5084306;27;45515;-78
2022/09/28 02:58:57;;;;;;;;;5.00;3.67;;;;;;;;4977973;28;46179;-77
2022/09/28 03:01:41;;;;;;;;;3.67;2.00;;;;;;;;5062883;27;46545;-78
2022/09/28 03:04:20;;;;;;;;;3.00;2.00;;;;;;;;5057300;27;45426;-79
2022/09/28 03:06:51;;;;;;;;;4.00;1.67;;;;;;;;5074427;27;45766;-77
2022/09/28 03:09:20;;;;;;;;;6.00;2.33;;;;;;;;5091587;27;45634;-78
2022/09/28 03:11:48;;;;;;;;;1.67;1.67;;;;;;;;5072981;27;46769;-79
2022/09/28 03:14:14;;;;;;;;;3.33;2.33;;;;;;;;5091566;27;45457;-79
2022/09/28 03:16:42;;;;;;;;;2.00;1.33;;;;;;;;5091489;27;45720;-78
2022/09/28 03:19:07;;;;;;;;;2.00;1.33;;;;;;;;5090936;27;45468;-78
2022/09/28 03:21:33;;;;;;;;;3.67;3.00;;;;;;;;5084245;27;46380;-81
2022/09/28 03:23:58;;;;;;;;;2.33;1.00;;;;;;;;5093222;27;45875;-79
2022/09/28 03:26:23;;;;;;;;;1.67;1.00;;;;;;;;5111864;27;45494;-79
2022/09/28 03:28:49;;;;;;;;;1.67;1.67;;;;;;;;5111540;27;45494;-79
2022/09/28 03:31:14;;;;;;;;;5.33;2.67;;;;;;;;5105211;27;45724;-79
2022/09/28 03:33:40;;;;;;;;;3.00;1.00;;;;;;;;5105082;27;45414;-78
2022/09/28 03:36:07;;;;;;;;;4.67;2.00;;;;;;;;5099335;27;45714;-79
2022/09/28 03:38:32;;;;;;;;;5.00;3.67;;;;;;;;5110386;27;45529;-78
2022/09/28 03:40:58;;;;;;;;;3.67;2.67;;;;;;;;5102349;27;45575;-79
2022/09/28 03:43:24;;;;;;;;;1.33;1.33;;;;;;;;5095348;27;45711;-80
2022/09/28 03:45:54;;;;;;;;;2.00;2.00;;;;;;;;5108237;27;45392;-79
2022/09/28 03:48:23;;;;;;;;;3.67;2.67;;;;;;;;5119509;27;45511;-77
2022/09/28 03:50:51;;;;;;;;;2.33;2.33;;;;;;;;5122740;27;47017;-78
2022/09/28 03:53:17;;;;;;;;;4.33;2.67;;;;;;;;5108231;27;45807;-79
2022/09/28 03:55:43;;;;;;;;;2.67;2.67;;;;;;;;5115452;27;45801;-78
2022/09/28 03:58:08;;;;;;;;;4.33;3.00;;;;;;;;5116803;27;45421;-77
2022/09/28 04:00:34;;;;;;;;;2.67;1.67;;;;;;;;5115600;27;45745;-80
2022/09/28 04:02:59;;;;;;;;;5.00;3.00;;;;;;;;5116362;27;45494;-81
2022/09/28 04:05:26;;;;;;;;;3.33;3.00;;;;;;;;5111951;27;45398;-81
2022/09/28 04:07:54;;;;;;;;;2.00;2.00;;;;;;;;5122572;27;45524;-79
2022/09/28 04:10:20;;;;;;;;;2.33;1.67;;;;;;;;5116704;27;45644;-83
2022/09/28 04:12:45;;;;;;;;;3.67;3.67;;;;;;;;5124252;27;45642;-80
2022/09/28 04:15:10;;;;;;;;;3.67;2.33;;;;;;;;5100831;27;45347;-82
2022/09/28 04:17:36;;;;;;;;;4.00;4.00;;;;;;;;5103482;27;45417;-81
2022/09/28 04:20:05;;;;;;;;;3.00;3.00;;;;;;;;5117387;27;45506;-81
2022/09/28 04:22:31;;;;;;;;;5.00;3.33;;;;;;;;5112316;27;46333;-80
2022/09/28 04:24:57;;;;;;;;;2.67;2.67;;;;;;;;5112834;27;45500;-79
2022/09/28 04:30:06;;;;;;;;;4.00;4.00;;;;;;;;5127303;27;45885;-80
2022/09/28 04:32:32;;;;;;;;;5.33;4.00;;;;;;;;5114699;27;45387;-77
2022/09/28 04:34:57;;;;;;;;;4.00;4.00;;;;;;;;5123287;27;45334;-80
2022/09/28 04:37:23;;;;;;;;;5.33;5.33;;;;;;;;5118650;27;45908;-81
2022/09/28 04:39:48;;;;;;;;;5.33;3.00;;;;;;;;5107614;27;45717;-80
2022/09/28 04:42:13;;;;;;;;;3.00;3.00;;;;;;;;5110326;27;45794;-81
2022/09/28 04:44:38;;;;;;;;;5.00;3.33;;;;;;;;5102894;27;45492;-79
2022/09/28 04:47:04;;;;;;;;;4.00;3.00;;;;;;;;5121698;27;45368;-78
2022/09/28 04:49:29;;;;;;;;;4.33;3.33;;;;;;;;5124608;27;45618;-78
2022/09/28 04:51:54;;;;;;;;;3.33;3.33;;;;;;;;5117338;27;45856;-78
2022/09/28 04:54:19;;;;;;;;;10.33;7.00;;;;;;;;5086135;27;45793;-77
2022/09/28 04:56:45;;;;;;;;;6.67;6.67;;;;;;;;5094622;27;45689;-80
2022/09/28 04:59:12;;;;;;;;;6.67;5.33;;;;;;;;5124747;27;47491;-80
2022/09/28 05:01:39;;;;;;;;;3.00;2.67;;;;;;;;5122460;27;45819;-86
2022/09/28 05:04:04;;;;;;;;;9.00;4.00;;;;;;;;5095163;27;45858;-84
2022/09/28 05:06:29;;;;;;;;;4.00;3.00;;;;;;;;5107210;27;45668;-86
2022/09/28 05:08:56;;;;;;;;;8.67;4.67;;;;;;;;5116182;27;46064;-82
2022/09/28 05:11:27;;;;;;;;;7.33;4.33;;;;;;;;5089312;27;45833;-82
2022/09/28 05:14:15;;;;;;;;;8.00;7.33;;;;;;;;5090879;27;45828;-84
2022/09/28 05:22:44;;;;;;;;;3.67;3.67;;;;;;;;5058574;27;45814;-83
2022/09/28 05:25:36;;;;;;;;;4.00;3.00;;;;;;;;5066929;27;45590;-80
2022/09/28 05:28:36;;;;;;;;;3.67;3.67;;;;;;;;5059809;28;45711;-80
2022/09/28 05:31:28;;;;;;;;;2.33;2.00;;;;;;;;4997809;28;46540;-81
2022/09/28 05:33:53;;;;;;;;;5.67;5.33;;;;;;;;4994003;28;45553;-78
2022/09/28 05:36:18;;;;;;;;;8.67;6.67;;;;;;;;4979963;28;45592;-79
2022/09/28 05:38:44;;;;;;;;;5.33;3.67;;;;;;;;4994758;28;45456;-80
2022/09/28 05:41:09;;;;;;;;;3.67;3.33;;;;;;;;5004619;28;46865;-79
2022/09/28 05:43:35;;;;;;;;;5.33;3.00;;;;;;;;5075784;27;45703;-80
2022/09/28 05:46:01;;;;;;;;;5.00;3.33;;;;;;;;5080386;27;45450;-78
2022/09/28 05:48:27;;;;;;;;;4.00;4.00;;;;;;;;5069343;27;46072;-82
2022/09/28 05:51:14;;;;;;;;;5.33;2.67;;;;;;;;5077681;27;47039;-85
2022/09/28 06:00:19;;;;;;;;;7.67;4.67;;;;;;;;5012432;28;45529;-83
2022/09/28 06:09:18;;;;;;;;;8.00;5.00;;;;;;;;4945831;28;44926;-85
2022/09/28 06:24:11;;;;;;;;;4.67;4.67;;;;;;;;4950801;28;45509;-85
2022/09/28 06:26:37;;;;;;;;;4.00;4.00;;;;;;;;5040203;27;48041;-83
2022/09/28 06:29:05;;;;;;;;;7.33;5.67;;;;;;;;5112555;27;45769;-84
2022/09/28 06:31:35;;;;;;;;;5.33;5.33;;;;;;;;5115177;27;45555;-82
2022/09/28 06:34:03;;;;;;;;;10.67;6.33;;;;;;;;5100449;27;45967;-81
2022/09/28 06:36:32;;;;;;;;;7.67;7.33;;;;;;;;5100109;27;45470;-83
2022/09/28 06:39:05;;;;;;;;;7.67;6.67;;;;;;;;5110822;27;45988;-80
2022/09/28 06:41:38;;;;;;;;;9.67;5.33;;;;;;;;5109798;27;45955;-79
2022/09/28 06:44:13;;;;;;;;;5.67;4.00;;;;;;;;5099646;27;45438;-80
2022/09/28 06:46:39;;;;;;;;;4.00;4.00;;;;;;;;5115012;27;45490;-84
2022/09/28 06:49:34;;;;;;;;;5.00;5.00;;;;;;;;5090599;27;46093;-81
2022/09/28 07:02:00;;;;;;;;;;;;;;;;;;;;;
2022/09/28 07:11:28;;;;;;;;;3.00;3.00;;;;;;;;4980654;28;45368;-81
2022/09/28 07:16:58;;;;;;;;;5.00;5.00;;;;;;;;4965398;28;45496;-79
2022/09/28 07:19:58;;;;;;;;;4.00;3.00;;;;;;;;5002896;28;45853;-80
2022/09/28 07:22:45;;;;;;;;;4.00;3.33;;;;;;;;5082922;27;46251;-82
2022/09/28 07:25:24;;;;;;;;;5.00;3.67;;;;;;;;5115545;27;45906;-80
2022/09/28 07:28:21;;;;;;;;;4.33;4.33;;;;;;;;5120049;27;45886;-79
2022/09/28 07:30:49;;;;;;;;;9.00;5.00;;;;;;;;5113771;27;45879;-77
2022/09/28 07:33:55;;;;;;;;;;;;;;;;;;;;;
2022/09/28 07:37:07;;;;;;;;;4.00;2.67;;;;;;;;5110869;27;73229;-82
2022/09/28 07:43:09;;;;;;;;;;;;;;;;;;;;;
2022/09/28 07:46:00;;;;;;;;;2.33;2.00;;;;;;;;5043684;27;73942;-81
2022/09/28 07:49:21;;;;;;;;;;;;;;;;;;;;;
2022/09/28 07:52:24;;;;;;;;;4.33;3.00;;;;;;;;5055245;27;69646;-80
2022/09/28 07:58:31;;;;;;;;;3.00;3.00;;;;;;;;5013328;28;46233;-80
2022/09/28 08:01:20;;;;;;;;;;;;;;;;;;;;;
2022/09/28 08:03:55;;;;;;;;;1.67;1.67;;;;;;;;4982909;28;69814;-79
2022/09/28 08:06:49;;;;;;;;;3.33;2.67;;;;;;;;5031272;28;45837;-79
2022/09/28 08:15:45;;;;;;;;;5.00;3.00;;;;;;;;5049756;28;45437;-81
2022/09/28 08:18:53;;;;;;;;;;;;;;;;;;;;;
2022/09/28 08:27:09;;;;;;;;;6.00;3.00;;;;;;;;4944022;28;45949;-85
2022/09/28 08:29:38;;;;;;;;;5.33;4.33;;;;;;;;4951835;28;45536;-78
2022/09/28 08:32:09;;;;;;;;;4.00;3.00;;;;;;;;4957331;28;45932;-80
2022/09/28 08:34:35;;;;;;;;;3.67;3.00;;;;;;;;5001911;28;45644;-77
2022/09/28 08:37:16;;;;;;;;;2.67;2.00;;;;;;;;5017343;28;45872;-77
2022/09/28 08:39:42;;;;;;;;;1.33;1.33;;;;;;;;5037715;28;45933;-81
2022/09/28 08:42:29;;;;;;;;;3.33;3.33;;;;;;;;5051338;27;46919;-80
2022/09/28 08:45:00;;;;;;;;;3.00;3.00;;;;;;;;5101161;27;45611;-79
2022/09/28 08:50:39;;;;;;;;;5.67;3.00;;;;;;;;5066731;27;45990;-79
2022/09/28 08:53:32;;;;;;;;;2.00;2.00;;;;;;;;5103180;27;47696;-79
2022/09/28 08:56:06;;;;;;;;;1.00;1.00;;;;;;;;5086212;27;45500;-78
2022/09/28 08:58:47;;;;;;;;;2.00;2.00;;;;;;;;5096917;27;45473;-80
2022/09/28 09:04:32;;;;;;;;;1.00;1.00;;;;;;;;5100282;27;45554;-80
2022/09/28 09:07:25;;;;;;;;;3.00;1.67;;;;;;;;5080575;27;45956;-79
2022/09/28 09:10:03;;;;;;;;;3.67;2.00;;;;;;;;5089596;27;45500;-82
2022/09/28 09:12:53;;;;;;;;;2.00;1.00;;;;;;;;5093463;27;45905;-81
2022/09/28 09:15:25;;;;;;;;;1.00;1.00;;;;;;;;5076238;27;46378;-80
2022/09/28 09:17:59;;;;;;;;;2.00;2.00;;;;;;;;5084831;27;46001;-81
2022/09/28 09:20:49;;;;;;;;;6.33;4.33;;;;;;;;5097865;27;45730;-82
2022/09/28 09:23:49;;;;;;;;;2.67;1.67;;;;;;;;5106471;27;45407;-82
2022/09/28 09:26:20;;;;;;;;;2.00;1.00;;;;;;;;5084795;27;45735;-82
2022/09/28 09:29:04;;;;;;;;;1.25;1.25;;;;;;;;5105671;27;45879;-82
2022/09/28 09:32:07;;;;;;;;;2.00;2.00;;;;;;;;5104984;27;45660;-82
2022/09/28 09:35:02;;;;;;;;;2.00;2.00;;;;;;;;5097750;27;45913;-80
2022/09/28 09:40:16;;;;;;;;;1.33;1.33;;;;;;;;5077952;27;45758;-83
2022/09/28 09:43:35;;;;;;;;;3.00;1.75;;;;;;;;5120050;27;45491;-83
2022/09/28 09:46:42;;;;;;;;;1.25;1.25;;;;;;;;5110472;27;45520;-80
2022/09/28 09:49:43;;;;;;;;;0.00;0.00;;;;;;;;5123551;27;45639;-83
2022/09/28 09:52:37;;;;;;;;;2.00;1.00;;;;;;;;5032582;27;45847;-81
2022/09/28 09:55:11;;;;;;;;;4.75;4.75;;;;;;;;5112009;27;45805;-80
2022/09/28 09:58:04;;;;;;;;;2.00;0.00;;;;;;;;5102444;27;45628;-81
2022/09/28 10:00:35;;;;;;;;;1.75;1.00;;;;;;;;5112619;27;47315;-83
2022/09/28 10:03:01;;;;;;;;;1.25;0.00;;;;;;;;5102567;27;45549;-81
2022/09/28 10:05:50;;;;;;;;;2.00;2.00;;;;;;;;5103864;27;45622;-82
2022/09/28 10:08:48;;;;;;;;;2.50;1.00;;;;;;;;5115961;27;45707;-79
2022/09/28 10:11:23;;;;;;;;;1.25;0.75;;;;;;;;5106851;27;45519;-80
2022/09/28 10:13:52;;;;;;;;;2.50;2.50;;;;;;;;5108532;27;45472;-78
2022/09/28 10:16:29;;;;;;;;;4.25;0.75;;;;;;;;5089717;27;45712;-79
2022/09/28 10:19:07;;;;;;;;;1.00;1.00;;;;;;;;5091107;27;45481;-85
2022/09/28 10:22:13;;;;;;;;;1.50;1.25;;;;;;;;5088846;27;48045;-81
2022/09/28 10:24:49;;;;;;;;;1.25;1.25;;;;;;;;5101415;27;45564;-77
2022/09/28 10:27:27;;;;;;;;;2.00;0.00;;;;;;;;5109188;27;45557;-78
2022/09/28 10:30:09;;;;;;;;;3.25;1.75;;;;;;;;5107489;27;45825;-79
2022/09/28 10:33:35;;;;;;;;;;;;;;;;;;;;;
2022/09/28 10:36:04;;;;;;;;;1.00;1.00;;;;;;;;5041355;28;45802;-83
2022/09/28 10:38:49;;;;;;;;;0.00;0.00;;;;;;;;5054186;28;45605;-79
2022/09/28 10:41:18;;;;;;;;;2.50;0.00;;;;;;;;5049024;28;45518;-81
2022/09/28 10:44:24;;;;;;;;;;;;;;;;;;;;;
2022/09/28 10:47:08;;;;;;;;;;;;;;;;;;;;;
2022/09/28 10:53:32;;;;;;;;;0.25;0.25;;;;;;;;5021752;27;45523;-79
2022/09/28 10:56:29;;;;;;;;;3.00;2.00;;;;;;;;5110264;27;45399;-81
2022/09/28 11:02:16;;;;;;;;;2.00;1.00;;;;;;;;5057909;27;45702;-79
2022/09/28 11:05:04;;;;;;;;;0.00;0.00;;;;;;;;5112735;27;45536;-81
2022/09/28 11:07:43;;;;;;;;;0.50;0.00;;;;;;;;5077907;27;47063;-79
2022/09/28 11:10:33;;;;;;;;;2.00;1.00;;;;;;;;5116439;27;45745;-83
2022/09/28 11:13:09;;;;;;;;;1.00;1.00;;;;;;;;5096794;27;45808;-78
2022/09/28 11:18:36;;;;;;;;;1.25;1.25;;;;;;;;5008272;28;46158;-79
2022/09/28 11:24:59;;;;;;;;;3.00;1.00;;;;;;;;5095711;27;45405;-84
2022/09/28 11:27:48;;;;;;;;;1.00;1.00;;;;;;;;5024854;28;45990;-81
2022/09/28 11:30:40;;;;;;;;;1.00;1.00;;;;;;;;5034321;28;45706;-81
2022/09/28 11:33:29;;;;;;;;;1.00;1.00;;;;;;;;5032088;28;45811;-80
2022/09/28 11:39:38;;;;;;;;;2.00;2.00;;;;;;;;5078896;27;45540;-81
2022/09/28 11:42:22;;;;;;;;;1.50;1.00;;;;;;;;5109110;27;45859;-81
2022/09/28 11:45:11;;;;;;;;;1.00;1.00;;;;;;;;5111158;27;45467;-80
2022/09/28 11:48:15;;;;;;;;;2.50;1.50;;;;;;;;5119004;27;45835;-81
2022/09/28 11:51:10;;;;;;;;;0.75;0.75;;;;;;;;5101979;27;45950;-81
2022/09/28 11:53:41;;;;;;;;;0.00;0.00;;;;;;;;5106509;27;45847;-79
2022/09/28 11:56:26;;;;;;;;;1.00;1.00;;;;;;;;5090894;27;45704;-80
2022/09/28 11:58:54;;;;;;;;;1.00;1.00;;;;;;;;5115954;27;45471;-84
2022/09/28 12:01:19;;;;;;;;;1.75;0.00;;;;;;;;5101252;27;45858;-83
2022/09/28 12:03:51;;;;;;;;;1.00;1.00;;;;;;;;5115687;27;46517;-83
2022/09/28 12:06:24;;;;;;;;;0.75;0.75;;;;;;;;5092667;27;45418;-84
2022/09/28 12:08:52;;;;;;;;;1.00;1.00;;;;;;;;5097896;27;45442;-79
2022/09/28 12:11:26;;;;;;;;;2.25;1.25;;;;;;;;5099132;27;45928;-81
2022/09/28 12:13:52;;;;;;;;;1.25;1.25;;;;;;;;5111118;27;45650;-81
2022/09/28 12:16:34;;;;;;;;;1.75;1.75;;;;;;;;5095805;27;45530;-81
2022/09/28 12:19:11;;;;;;;;;2.00;1.00;;;;;;;;5109197;27;45426;-84
2022/09/28 12:21:42;;;;;;;;;0.25;0.00;;;;;;;;5094810;27;45758;-83
2022/09/28 12:24:15;;;;;;;;;1.00;1.00;;;;;;;;5098857;27;46452;-81
2022/09/28 12:26:46;;;;;;;;;2.00;0.25;;;;;;;;5109665;27;45838;-82
2022/09/28 12:29:14;;;;;;;;;1.00;1.00;;;;;;;;5075509;27;45754;-81
2022/09/28 12:32:00;;;;;;;;;0.00;0.00;;;;;;;;5094743;27;45798;-78
2022/09/28 12:34:25;;;;;;;;;1.00;1.00;;;;;;;;5056287;27;46560;-82
2022/09/28 12:37:01;;;;;;;;;1.00;0.75;;;;;;;;5111723;27;45382;-80
2022/09/28 12:39:45;;;;;;;;;1.00;1.00;;;;;;;;5077675;27;45824;-79
2022/09/28 12:42:27;;;;;;;;;1.75;1.25;;;;;;;;5076692;27;46128;-80
2022/09/28 12:45:02;;;;;;;;;1.75;0.75;;;;;;;;5094698;27;45480;-79
2022/09/28 12:47:30;;;;;;;;;0.00;0.00;;;;;;;;5094766;27;45720;-82
2022/09/28 12:50:13;;;;;;;;;2.00;0.75;;;;;;;;5094838;27;45758;-81
2022/09/28 12:53:06;;;;;;;;;1.50;1.00;;;;;;;;5093137;27;45891;-80
2022/09/28 12:55:50;;;;;;;;;1.00;1.00;;;;;;;;5092763;27;46165;-81
2022/09/28 12:58:18;;;;;;;;;1.00;1.00;;;;;;;;5100875;27;45775;-80
2022/09/28 13:00:46;;;;;;;;;1.00;1.00;;;;;;;;5067136;27;45535;-79
2022/09/28 13:03:37;;;;;;;;;3.00;2.00;;;;;;;;5092578;27;45665;-81
2022/09/28 13:06:04;;;;;;;;;2.00;1.00;;;;;;;;5073075;27;45723;-81
2022/09/28 13:08:49;;;;;;;;;4.00;1.00;;;;;;;;5086019;27;45569;-81
2022/09/28 13:11:31;;;;;;;;;1.75;1.00;;;;;;;;5057662;27;45810;-82
2022/09/28 13:14:06;;;;;;;;;4.33;2.33;;;;;;;;5073309;27;46422;-81
2022/09/28 13:16:32;;;;;;;;;1.00;1.00;;;;;;;;5073841;27;47017;-79
2022/09/28 13:19:14;;;;;;;;;2.00;2.00;;;;;;;;5078593;27;45531;-78
2022/09/28 13:21:40;;;;;;;;;0.67;0.67;;;;;;;;5093050;27;45528;-78
2022/09/28 13:24:08;;;;;;;;;2.67;1.33;;;;;;;;5073583;27;45612;-79
2022/09/28 13:26:36;;;;;;;;;1.00;1.00;;;;;;;;5074959;27;47653;-74
2022/09/28 13:29:13;;;;;;;;;3.00;1.33;;;;;;;;5105663;27;45470;-78
2022/09/28 13:31:47;;;;;;;;;2.50;1.00;;;;;;;;5109245;27;45878;-78
2022/09/28 13:34:21;;;;;;;;;0.67;0.67;;;;;;;;5089956;27;46167;-79
2022/09/28 13:37:06;;;;;;;;;1.00;1.00;;;;;;;;5107593;27;46621;-80
2022/09/28 13:39:35;;;;;;;;;0.50;0.50;;;;;;;;5089532;27;45974;-77
2022/09/28 13:42:01;;;;;;;;;1.33;1.00;;;;;;;;5085317;27;45716;-73
2022/09/28 13:44:32;;;;;;;;;0.67;0.00;;;;;;;;5100997;27;45772;-73
2022/09/28 13:46:57;;;;;;;;;0.75;0.75;;;;;;;;5107196;27;45732;-75
2022/09/28 13:49:25;;;;;;;;;2.00;1.00;;;;;;;;5109704;27;45658;-74
2022/09/28 13:51:57;;;;;;;;;1.33;0.67;;;;;;;;5111743;27;45834;-74
2022/09/28 13:54:41;;;;;;;;;2.50;1.25;;;;;;;;5094704;27;45858;-76
2022/09/28 13:57:18;;;;;;;;;0.67;0.67;;;;;;;;5090344;27;48427;-75
2022/09/28 13:59:52;;;;;;;;;2.00;1.00;;;;;;;;5092923;27;45893;-76
2022/09/28 14:02:27;;;;;;;;;2.00;2.00;;;;;;;;5089013;27;45707;-77
2022/09/28 14:04:55;;;;;;;;;1.67;1.67;;;;;;;;5105863;27;45836;-77
2022/09/28 14:07:24;;;;;;;;;3.00;2.00;;;;;;;;5108206;27;46241;-78
2022/09/28 14:10:04;;;;;;;;;3.00;2.00;;;;;;;;5107894;27;45546;-77
2022/09/28 14:12:32;;;;;;;;;6.00;5.33;;;;;;;;5106455;27;45514;-78
2022/09/28 14:14:58;;;;;;;;;3.67;2.67;;;;;;;;5110989;27;45962;-80
2022/09/28 14:17:24;;;;;;;;;1.00;1.00;;;;;;;;5093716;27;45826;-83
2022/09/28 14:19:51;;;;;;;;;1.67;1.00;;;;;;;;5112745;27;45854;-78
2022/09/28 14:22:16;;;;;;;;;1.00;1.00;;;;;;;;5108002;27;45415;-77
2022/09/28 14:24:44;;;;;;;;;2.00;1.00;;;;;;;;5098716;27;45484;-77
2022/09/28 14:27:09;;;;;;;;;1.67;1.00;;;;;;;;5089203;27;48342;-78
2022/09/28 14:29:37;;;;;;;;;2.00;1.00;;;;;;;;5102977;27;45862;-81
2022/09/28 14:32:09;;;;;;;;;2.00;1.00;;;;;;;;5104643;27;45585;-80
2022/09/28 14:34:44;;;;;;;;;2.00;1.00;;;;;;;;5098596;27;45818;-82
2022/09/28 14:43:24;;;;;;;;;1.00;1.00;;;;;;;;5110168;27;45464;-80
2022/09/28 14:45:50;;;;;;;;;2.00;2.00;;;;;;;;5099655;27;45414;-79
2022/09/28 14:48:24;;;;;;;;;2.67;2.00;;;;;;;;5101836;27;46909;-80
2022/09/28 14:50:50;;;;;;;;;1.67;1.00;;;;;;;;5094426;27;45585;-78
2022/09/28 14:53:19;;;;;;;;;1.00;1.00;;;;;;;;5125211;27;45925;-79
2022/09/28 14:55:51;;;;;;;;;1.67;1.00;;;;;;;;5109648;27;45935;-80
2022/09/28 14:58:22;;;;;;;;;2.00;2.00;;;;;;;;5105267;27;45707;-78
2022/09/28 15:00:51;;;;;;;;;1.00;1.00;;;;;;;;5096080;27;45888;-79
2022/09/28 15:03:20;;;;;;;;;1.33;0.00;;;;;;;;5098280;27;45448;-79
2022/09/28 15:05:46;;;;;;;;;2.00;2.00;;;;;;;;5106209;27;45931;-78
2022/09/28 15:08:14;;;;;;;;;0.33;0.00;;;;;;;;5102122;27;45727;-78
2022/09/28 15:10:46;;;;;;;;;0.00;0.00;;;;;;;;5089692;27;45429;-79
2022/09/28 15:13:27;;;;;;;;;0.33;0.33;;;;;;;;5111447;27;45755;-78
2022/09/28 15:16:12;;;;;;;;;1.00;1.00;;;;;;;;5087217;27;45766;-79
2022/09/28 15:19:00;;;;;;;;;1.33;1.33;;;;;;;;5103834;27;45575;-80
2022/09/28 15:21:42;;;;;;;;;3.67;2.00;;;;;;;;5107303;27;45737;-79
2022/09/28 15:24:30;;;;;;;;;0.33;0.33;;;;;;;;5106140;27;45783;-79
2022/09/28 15:27:04;;;;;;;;;0.00;0.00;;;;;;;;5090549;27;45741;-80
2022/09/28 15:29:53;;;;;;;;;2.00;1.00;;;;;;;;5083507;27;47089;-80
2022/09/28 15:35:40;;;;;;;;;2.67;1.00;;;;;;;;5067653;27;45791;-80
2022/09/28 15:38:11;;;;;;;;;1.33;1.33;;;;;;;;5070453;27;45638;-81
2022/09/28 15:40:53;;;;;;;;;6.33;6.33;;;;;;;;5087015;27;45890;-81
2022/09/28 15:46:35;;;;;;;;;1.00;1.00;;;;;;;;5079778;27;45562;-80
2022/09/28 15:49:12;;;;;;;;;1.00;1.00;;;;;;;;5091108;27;47064;-80
2022/09/28 15:51:51;;;;;;;;;1.00;1.00;;;;;;;;5070790;27;46828;-79
2022/09/28 15:54:26;;;;;;;;;0.67;0.00;;;;;;;;5070547;27;45621;-82
2022/09/28 15:56:56;;;;;;;;;0.00;0.00;;;;;;;;5090791;22;45765;-74
2022/09/28 15:59:24;;;;;;;;;0.00;0.00;;;;;;;;5092119;27;45467;-70
2022/09/28 16:02:00;;;;;;;;;0.67;0.67;;;;;;;;5088439;27;46517;-72
2022/09/28 16:04:37;;;;;;;;;0.00;0.00;;;;;;;;5087780;27;45552;-76
2022/09/28 16:07:11;;;;;;;;;0.33;0.33;;;;;;;;5084398;27;45602;-74
2022/09/28 16:09:55;;;;;;;;;1.00;1.00;;;;;;;;5085902;27;45577;-73
2022/09/28 16:12:21;;;;;;;;;1.33;1.00;;;;;;;;5080450;27;46521;-73
2022/09/28 16:14:50;;;;;;;;;4.00;2.33;;;;;;;;5072710;27;45843;-69
2022/09/28 16:17:42;;;;;;;;;0.67;0.67;;;;;;;;5091656;27;45394;-70
2022/09/28 16:20:28;;;;;;;;;4.00;4.00;;;;;;;;5089174;27;45703;-73
2022/09/28 16:22:55;;;;;;;;;1.00;1.00;;;;;;;;5091073;27;45596;-74
2022/09/28 16:25:23;;;;;;;;;1.00;0.00;;;;;;;;5089924;27;45690;-75
2022/09/28 16:27:48;;;;;;;;;1.67;1.67;;;;;;;;5090937;27;46617;-71
2022/09/28 16:30:22;;;;;;;;;3.00;2.00;;;;;;;;5090835;27;45388;-70
2022/09/28 16:32:48;;;;;;;;;4.00;1.67;;;;;;;;5089776;27;46305;-73
2022/09/28 16:35:17;;;;;;;;;1.00;1.00;;;;;;;;5090952;27;45535;-73
2022/09/28 16:37:42;;;;;;;;;2.33;2.00;;;;;;;;5086277;27;45346;-74
2022/09/28 16:40:09;;;;;;;;;1.00;1.00;;;;;;;;5091052;27;45677;-76
2022/09/28 16:42:34;;;;;;;;;2.00;2.00;;;;;;;;5079316;27;46739;-75
2022/09/28 16:45:03;;;;;;;;;1.33;0.67;;;;;;;;5093143;27;45412;-73
2022/09/28 16:47:32;;;;;;;;;2.00;2.00;;;;;;;;5087883;27;45779;-75
2022/09/28 16:49:58;;;;;;;;;1.67;1.67;;;;;;;;5067899;27;46786;-74
2022/09/28 16:55:15;;;;;;;;;1.00;1.00;;;;;;;;5089046;27;45858;-74
2022/09/28 16:57:41;;;;;;;;;3.33;1.00;;;;;;;;5064676;27;45710;-74
2022/09/28 17:00:18;;;;;;;;;1.00;1.00;;;;;;;;5067855;27;46822;-73
2022/09/28 17:02:45;;;;;;;;;0.00;0.00;;;;;;;;5066245;27;45716;-71
2022/09/28 17:05:11;;;;;;;;;1.00;1.00;;;;;;;;5066328;27;45767;-73
2022/09/28 17:07:37;;;;;;;;;1.33;0.67;;;;;;;;5064330;27;45561;-73
2022/09/28 17:10:09;;;;;;;;;2.00;2.00;;;;;;;;5076460;27;45558;-73
2022/09/28 17:12:34;;;;;;;;;2.00;1.00;;;;;;;;5073794;27;45708;-74
2022/09/28 17:14:59;;;;;;;;;1.00;1.00;;;;;;;;5067644;27;45596;-76
2022/09/28 17:17:28;;;;;;;;;2.33;0.33;;;;;;;;5073805;27;45770;-74
2022/09/28 17:19:54;;;;;;;;;1.00;1.00;;;;;;;;5064669;27;46057;-71
2022/09/28 17:22:19;;;;;;;;;1.00;1.00;;;;;;;;5065531;27;45393;-72
2022/09/28 17:24:45;;;;;;;;;4.00;2.00;;;;;;;;5051381;28;45768;-75
2022/09/28 17:27:15;;;;;;;;;2.67;2.00;;;;;;;;5066199;27;46383;-75
2022/09/28 17:29:40;;;;;;;;;2.00;2.00;;;;;;;;5067595;27;45602;-75
2022/09/28 17:32:12;;;;;;;;;0.67;0.67;;;;;;;;5066610;27;46189;-74
2022/09/28 17:34:37;;;;;;;;;1.00;1.00;;;;;;;;5064659;27;46018;-74
2022/09/28 17:37:02;;;;;;;;;3.00;2.00;;;;;;;;5064721;27;45409;-75
2022/09/28 17:39:27;;;;;;;;;1.00;1.00;;;;;;;;5051923;28;45901;-70
2022/09/28 17:41:53;;;;;;;;;3.00;2.00;;;;;;;;5064593;27;46144;-72
2022/09/28 17:44:19;;;;;;;;;3.67;1.00;;;;;;;;5048038;27;45319;-71